createdAt,value
2019-03-06T00:00:13.597Z,958.62
2019-03-06T00:01:13.592Z,958.60
2019-03-06T00:02:13.582Z,958.64
2019-03-06T00:03:13.577Z,958.63
2019-03-06T00:04:13.569Z,958.61
2019-03-06T00:05:13.559Z,958.64
2019-03-06T00:06:16.726Z,958.65
2019-03-06T00:07:13.563Z,958.63
2019-03-06T00:08:13.539Z,958.63
2019-03-06T00:09:13.530Z,958.68
2019-03-06T00:10:13.522Z,958.62
2019-03-06T00:11:13.520Z,958.60
2019-03-06T00:12:13.510Z,958.61
2019-03-06T00:13:13.504Z,958.62
2019-03-06T00:14:13.495Z,958.61
2019-03-06T00:15:13.488Z,958.64
2019-03-06T00:16:13.480Z,958.59
2019-03-06T00:17:13.472Z,958.62
2019-03-06T00:18:13.471Z,958.60
2019-03-06T00:19:13.473Z,958.61
2019-03-06T00:20:13.451Z,958.57
2019-03-06T00:21:13.445Z,958.56
2019-03-06T00:22:13.434Z,958.52
2019-03-06T00:23:13.429Z,958.53
2019-03-06T00:24:13.422Z,958.53
2019-03-06T00:25:13.414Z,958.51
2019-03-06T00:26:13.418Z,958.52
2019-03-06T00:27:13.400Z,958.49
2019-03-06T00:28:13.409Z,958.54
2019-03-06T00:29:13.385Z,958.55
2019-03-06T00:30:13.378Z,958.52
2019-03-06T00:31:13.372Z,958.53
2019-03-06T00:32:13.368Z,958.50
2019-03-06T00:33:13.356Z,958.50
2019-03-06T00:34:13.352Z,958.51
2019-03-06T00:35:13.342Z,958.51
2019-03-06T00:36:13.335Z,958.45
2019-03-06T00:37:13.330Z,958.45
2019-03-06T00:38:13.321Z,958.44
2019-03-06T00:39:13.318Z,958.41
2019-03-06T00:40:13.307Z,958.43
2019-03-06T00:41:13.301Z,958.41
2019-03-06T00:42:13.296Z,958.37
2019-03-06T00:43:13.286Z,958.39
2019-03-06T00:44:13.280Z,958.34
2019-03-06T00:45:13.273Z,958.37
2019-03-06T00:46:13.263Z,958.38
2019-03-06T00:47:13.252Z,958.37
2019-03-06T00:48:13.251Z,958.31
2019-03-06T00:49:13.241Z,958.30
2019-03-06T00:50:13.236Z,958.30
2019-03-06T00:51:13.228Z,958.24
2019-03-06T00:52:13.221Z,958.23
2019-03-06T00:53:13.211Z,958.20
2019-03-06T00:54:13.205Z,958.23
2019-03-06T00:55:13.199Z,958.20
2019-03-06T00:56:13.218Z,958.15
2019-03-06T00:57:13.182Z,958.16
2019-03-06T00:58:13.275Z,958.14
2019-03-06T00:59:13.170Z,958.12
2019-03-06T01:00:13.161Z,958.10
2019-03-06T01:01:13.155Z,958.16
2019-03-06T01:02:13.147Z,958.13
2019-03-06T01:03:13.140Z,958.12
2019-03-06T01:04:13.133Z,958.10
2019-03-06T01:05:13.127Z,958.13
2019-03-06T01:06:13.119Z,958.09
2019-03-06T01:07:13.111Z,958.09
2019-03-06T01:08:13.104Z,958.05
2019-03-06T01:09:13.095Z,958.08
2019-03-06T01:10:13.089Z,958.07
2019-03-06T01:11:13.081Z,958.04
2019-03-06T01:12:13.074Z,958.02
2019-03-06T01:13:13.065Z,958.05
2019-03-06T01:14:13.062Z,958.06
2019-03-06T01:15:13.049Z,958.09
2019-03-06T01:16:13.045Z,958.10
2019-03-06T01:17:13.038Z,958.10
2019-03-06T01:18:13.029Z,958.05
2019-03-06T01:19:13.021Z,958.10
2019-03-06T01:20:13.016Z,958.05
2019-03-06T01:21:13.004Z,958.06
2019-03-06T01:22:12.998Z,958.09
2019-03-06T01:23:12.990Z,958.09
2019-03-06T01:24:12.985Z,958.05
2019-03-06T01:25:12.977Z,958.11
2019-03-06T01:26:12.969Z,958.11
2019-03-06T01:27:12.961Z,958.07
2019-03-06T01:28:12.956Z,958.01
2019-03-06T01:29:12.944Z,958.02
2019-03-06T01:30:12.940Z,958.01
2019-03-06T01:31:12.934Z,958.02
2019-03-06T01:32:12.925Z,958.01
2019-03-06T01:33:12.920Z,958.06
2019-03-06T01:34:12.913Z,958.03
2019-03-06T01:35:12.901Z,958.01
2019-03-06T01:36:12.890Z,957.97
2019-03-06T01:37:12.882Z,958.00
2019-03-06T01:38:12.876Z,958.03
2019-03-06T01:39:12.868Z,957.99
2019-03-06T01:40:12.875Z,957.98
2019-03-06T01:41:12.855Z,958.00
2019-03-06T01:42:12.853Z,957.99
2019-03-06T01:43:12.838Z,958.01
2019-03-06T01:44:12.831Z,958.04
2019-03-06T01:45:12.835Z,958.05
2019-03-06T01:46:12.814Z,957.98
2019-03-06T01:47:12.808Z,958.00
2019-03-06T01:48:12.800Z,958.00
2019-03-06T01:49:12.788Z,957.98
2019-03-06T01:50:12.782Z,957.99
2019-03-06T01:51:12.773Z,957.92
2019-03-06T01:52:12.766Z,957.86
2019-03-06T01:53:12.759Z,957.87
2019-03-06T01:54:12.753Z,957.87
2019-03-06T01:55:12.743Z,957.89
2019-03-06T01:56:12.735Z,957.86
2019-03-06T01:57:12.731Z,957.88
2019-03-06T01:58:12.736Z,957.85
2019-03-06T01:59:12.711Z,957.85
2019-03-06T02:00:12.703Z,957.85
2019-03-06T02:01:12.696Z,957.80
2019-03-06T02:02:12.683Z,957.86
2019-03-06T02:03:12.680Z,957.81
2019-03-06T02:04:12.673Z,957.80
2019-03-06T02:05:12.660Z,957.83
2019-03-06T02:06:12.655Z,957.88
2019-03-06T02:07:12.647Z,957.79
2019-03-06T02:08:12.641Z,957.80
2019-03-06T02:09:12.631Z,957.75
2019-03-06T02:10:12.621Z,957.74
2019-03-06T02:11:12.617Z,957.77
2019-03-06T02:12:12.614Z,957.80
2019-03-06T02:13:12.603Z,957.80
2019-03-06T02:14:12.616Z,957.78
2019-03-06T02:15:12.586Z,957.82
2019-03-06T02:16:12.579Z,957.76
2019-03-06T02:17:12.568Z,957.82
2019-03-06T02:18:12.564Z,957.77
2019-03-06T02:19:12.556Z,957.77
2019-03-06T02:20:12.547Z,957.77
2019-03-06T02:21:12.538Z,957.79
2019-03-06T02:22:12.531Z,957.79
2019-03-06T02:23:12.522Z,957.78
2019-03-06T02:24:12.527Z,957.76
2019-03-06T02:25:12.503Z,957.76
2019-03-06T02:26:12.501Z,957.65
2019-03-06T02:27:12.495Z,957.75
2019-03-06T02:28:12.489Z,957.68
2019-03-06T02:29:12.472Z,957.74
2019-03-06T02:30:12.481Z,957.73
2019-03-06T02:31:12.458Z,957.72
2019-03-06T02:32:12.453Z,957.73
2019-03-06T02:33:12.457Z,957.70
2019-03-06T02:34:12.439Z,957.67
2019-03-06T02:35:12.430Z,957.69
2019-03-06T02:36:12.426Z,957.69
2019-03-06T02:37:12.418Z,957.62
2019-03-06T02:38:12.404Z,957.63
2019-03-06T02:39:12.396Z,957.68
2019-03-06T02:40:12.395Z,957.70
2019-03-06T02:41:12.381Z,957.69
2019-03-06T02:42:12.378Z,957.67
2019-03-06T02:43:12.379Z,957.64
2019-03-06T02:44:12.369Z,957.64
2019-03-06T02:45:12.350Z,957.62
2019-03-06T02:46:12.357Z,957.69
2019-03-06T02:47:12.346Z,957.67
2019-03-06T02:48:12.329Z,957.69
2019-03-06T02:49:12.320Z,957.50
2019-03-06T02:50:12.309Z,957.55
2019-03-06T02:51:12.312Z,957.52
2019-03-06T02:52:12.293Z,957.47
2019-03-06T02:53:12.292Z,957.50
2019-03-06T02:54:12.274Z,957.45
2019-03-06T02:55:12.279Z,957.42
2019-03-06T02:56:12.285Z,957.45
2019-03-06T02:57:12.259Z,957.38
2019-03-06T02:58:12.250Z,957.41
2019-03-06T02:59:12.239Z,957.37
2019-03-06T03:00:12.231Z,957.36
2019-03-06T03:01:12.222Z,957.37
2019-03-06T03:02:12.214Z,957.36
2019-03-06T03:03:12.207Z,957.40
2019-03-06T03:04:12.203Z,957.33
2019-03-06T03:05:12.191Z,957.38
2019-03-06T03:06:12.198Z,957.37
2019-03-06T03:07:12.176Z,957.37
2019-03-06T03:08:12.186Z,957.31
2019-03-06T03:09:12.163Z,957.34
2019-03-06T03:10:12.173Z,957.35
2019-03-06T03:11:12.144Z,957.37
2019-03-06T03:12:12.139Z,957.32
2019-03-06T03:13:12.125Z,957.36
2019-03-06T03:14:12.124Z,957.32
2019-03-06T03:15:12.114Z,957.31
2019-03-06T03:16:12.114Z,957.32
2019-03-06T03:17:12.098Z,957.27
2019-03-06T03:18:12.097Z,957.24
2019-03-06T03:19:12.087Z,957.20
2019-03-06T03:20:12.075Z,957.21
2019-03-06T03:21:12.065Z,957.20
2019-03-06T03:22:12.137Z,957.26
2019-03-06T03:23:12.061Z,957.21
2019-03-06T03:24:12.044Z,957.21
2019-03-06T03:25:12.035Z,957.22
2019-03-06T03:26:12.028Z,957.23
2019-03-06T03:27:12.036Z,957.11
2019-03-06T03:28:12.013Z,957.18
2019-03-06T03:29:12.002Z,957.06
2019-03-06T03:30:12.006Z,957.02
2019-03-06T03:31:11.991Z,957.03
2019-03-06T03:32:11.981Z,957.02
2019-03-06T03:33:11.982Z,956.97
2019-03-06T03:34:11.965Z,956.98
2019-03-06T03:35:11.958Z,956.99
2019-03-06T03:36:11.950Z,957.00
2019-03-06T03:37:11.940Z,957.02
2019-03-06T03:38:11.937Z,957.01
2019-03-06T03:39:11.942Z,956.99
2019-03-06T03:40:11.921Z,956.97
2019-03-06T03:41:11.917Z,956.94
2019-03-06T03:42:11.913Z,957.05
2019-03-06T03:43:11.899Z,957.01
2019-03-06T03:44:11.889Z,956.99
2019-03-06T03:45:11.880Z,957.00
2019-03-06T03:46:11.873Z,957.01
2019-03-06T03:47:11.892Z,957.05
2019-03-06T03:48:11.871Z,957.03
2019-03-06T03:49:11.855Z,957.05
2019-03-06T03:50:11.883Z,957.03
2019-03-06T03:51:11.835Z,957.02
2019-03-06T03:52:11.827Z,957.01
2019-03-06T03:53:11.815Z,956.97
2019-03-06T03:54:11.810Z,956.95
2019-03-06T03:55:11.799Z,956.94
2019-03-06T03:56:11.816Z,956.97
2019-03-06T03:57:11.787Z,956.92
2019-03-06T03:58:11.780Z,956.91
2019-03-06T03:59:11.773Z,956.86
2019-03-06T04:00:11.766Z,956.90
2019-03-06T04:01:11.757Z,956.93
2019-03-06T04:02:11.754Z,956.90
2019-03-06T04:03:11.753Z,956.91
2019-03-06T04:04:11.740Z,956.87
2019-03-06T04:05:11.723Z,956.85
2019-03-06T04:06:11.720Z,956.94
2019-03-06T04:07:11.711Z,956.89
2019-03-06T04:08:11.713Z,956.90
2019-03-06T04:09:11.696Z,956.93
2019-03-06T04:10:11.691Z,956.88
2019-03-06T04:11:11.683Z,956.89
2019-03-06T04:12:11.671Z,956.85
2019-03-06T04:13:11.666Z,956.84
2019-03-06T04:14:11.663Z,956.80
2019-03-06T04:15:11.661Z,956.84
2019-03-06T04:16:11.645Z,956.79
2019-03-06T04:17:11.641Z,956.77
2019-03-06T04:18:11.638Z,956.78
2019-03-06T04:19:11.623Z,956.75
2019-03-06T04:20:11.617Z,956.72
2019-03-06T04:21:11.611Z,956.81
2019-03-06T04:22:11.619Z,956.82
2019-03-06T04:23:11.590Z,956.82
2019-03-06T04:24:11.586Z,956.84
2019-03-06T04:25:11.577Z,956.85
2019-03-06T04:26:11.568Z,956.87
2019-03-06T04:27:11.563Z,956.86
2019-03-06T04:28:11.552Z,956.87
2019-03-06T04:29:11.546Z,956.88
2019-03-06T04:30:11.540Z,956.88
2019-03-06T04:31:11.539Z,956.84
2019-03-06T04:32:11.535Z,956.85
2019-03-06T04:33:11.521Z,956.82
2019-03-06T04:34:11.510Z,956.84
2019-03-06T04:35:11.502Z,956.84
2019-03-06T04:36:11.498Z,956.82
2019-03-06T04:37:11.486Z,956.74
2019-03-06T04:38:11.485Z,956.77
2019-03-06T04:39:11.472Z,956.76
2019-03-06T04:40:11.465Z,956.72
2019-03-06T04:41:11.459Z,956.75
2019-03-06T04:42:11.449Z,956.71
2019-03-06T04:43:11.443Z,956.74
2019-03-06T04:44:11.436Z,956.70
2019-03-06T04:45:11.427Z,956.68
2019-03-06T04:46:11.421Z,956.67
2019-03-06T04:47:11.412Z,956.64
2019-03-06T04:48:11.410Z,956.65
2019-03-06T04:49:11.398Z,956.68
2019-03-06T04:50:11.391Z,956.64
2019-03-06T04:51:13.123Z,956.61
2019-03-06T04:52:11.383Z,956.61
2019-03-06T04:53:11.368Z,956.65
2019-03-06T04:54:11.362Z,956.65
2019-03-06T04:55:11.354Z,956.60
2019-03-06T04:56:11.350Z,956.70
2019-03-06T04:57:11.340Z,956.66
2019-03-06T04:58:11.333Z,956.64
2019-03-06T04:59:11.342Z,956.70
2019-03-06T05:00:11.317Z,956.70
2019-03-06T05:01:11.312Z,956.72
2019-03-06T05:02:11.311Z,956.67
2019-03-06T05:03:11.302Z,956.61
2019-03-06T05:04:11.295Z,956.57
2019-03-06T05:05:11.283Z,956.65
2019-03-06T05:06:11.277Z,956.61
2019-03-06T05:07:11.285Z,956.57
2019-03-06T05:08:11.261Z,956.69
2019-03-06T05:09:11.251Z,956.62
2019-03-06T05:10:11.247Z,956.61
2019-03-06T05:11:11.238Z,956.59
2019-03-06T05:12:11.230Z,956.60
2019-03-06T05:13:11.223Z,956.64
2019-03-06T05:14:11.215Z,956.55
2019-03-06T05:15:11.209Z,956.55
2019-03-06T05:16:11.203Z,956.56
2019-03-06T05:17:11.192Z,956.59
2019-03-06T05:18:11.189Z,956.57
2019-03-06T05:19:11.180Z,956.58
2019-03-06T05:20:11.172Z,956.49
2019-03-06T05:21:11.164Z,956.54
2019-03-06T05:22:11.158Z,956.52
2019-03-06T05:23:11.155Z,956.53
2019-03-06T05:24:11.145Z,956.55
2019-03-06T05:25:11.137Z,956.51
2019-03-06T05:26:11.129Z,956.46
2019-03-06T05:27:11.123Z,956.44
2019-03-06T05:28:11.123Z,956.42
2019-03-06T05:29:11.107Z,956.38
2019-03-06T05:30:11.100Z,956.40
2019-03-06T05:31:11.094Z,956.41
2019-03-06T05:32:11.097Z,956.42
2019-03-06T05:33:11.081Z,956.47
2019-03-06T05:34:11.069Z,956.46
2019-03-06T05:35:11.077Z,956.39
2019-03-06T05:36:11.080Z,956.43
2019-03-06T05:37:11.052Z,956.42
2019-03-06T05:38:11.051Z,956.47
2019-03-06T05:39:11.059Z,956.41
2019-03-06T05:40:11.032Z,956.40
2019-03-06T05:41:11.026Z,956.43
2019-03-06T05:42:11.020Z,956.45
2019-03-06T05:43:11.035Z,956.39
2019-03-06T05:44:11.004Z,956.40
2019-03-06T05:45:11.031Z,956.38
2019-03-06T05:46:10.997Z,956.35
2019-03-06T05:47:10.985Z,956.35
2019-03-06T05:48:10.978Z,956.37
2019-03-06T05:49:10.966Z,956.39
2019-03-06T05:50:11.013Z,956.46
2019-03-06T05:51:10.975Z,956.46
2019-03-06T05:52:10.950Z,956.46
2019-03-06T05:53:10.943Z,956.48
2019-03-06T05:54:10.933Z,956.41
2019-03-06T05:55:10.926Z,956.37
2019-03-06T05:56:10.928Z,956.39
2019-03-06T05:57:10.914Z,956.33
2019-03-06T05:58:10.923Z,956.37
2019-03-06T05:59:10.902Z,956.31
2019-03-06T06:00:10.895Z,956.29
2019-03-06T06:01:10.890Z,956.32
2019-03-06T06:02:10.881Z,956.35
2019-03-06T06:03:10.874Z,956.30
2019-03-06T06:04:10.869Z,956.28
2019-03-06T06:05:10.871Z,956.29
2019-03-06T06:06:10.855Z,956.26
2019-03-06T06:07:10.871Z,956.23
2019-03-06T06:08:10.837Z,956.29
2019-03-06T06:09:10.836Z,956.27
2019-03-06T06:10:10.827Z,956.28
2019-03-06T06:11:10.825Z,956.27
2019-03-06T06:12:10.821Z,956.27
2019-03-06T06:13:10.804Z,956.31
2019-03-06T06:14:10.799Z,956.24
2019-03-06T06:15:10.793Z,956.32
2019-03-06T06:16:10.786Z,956.33
2019-03-06T06:17:10.782Z,956.35
2019-03-06T06:18:10.772Z,956.25
2019-03-06T06:19:10.767Z,956.29
2019-03-06T06:20:10.762Z,956.24
2019-03-06T06:21:10.752Z,956.21
2019-03-06T06:22:10.747Z,956.26
2019-03-06T06:23:10.746Z,956.28
2019-03-06T06:24:10.741Z,956.28
2019-03-06T06:25:10.728Z,956.30
2019-03-06T06:26:10.720Z,956.34
2019-03-06T06:27:10.712Z,956.33
2019-03-06T06:28:10.723Z,956.31
2019-03-06T06:29:10.700Z,956.31
2019-03-06T06:30:10.693Z,956.40
2019-03-06T06:31:10.687Z,956.35
2019-03-06T06:32:10.679Z,956.37
2019-03-06T06:33:10.671Z,956.34
2019-03-06T06:34:10.670Z,956.29
2019-03-06T06:35:10.678Z,956.24
2019-03-06T06:36:10.656Z,956.26
2019-03-06T06:37:10.651Z,956.24
2019-03-06T06:38:10.644Z,956.25
2019-03-06T06:39:10.643Z,956.26
2019-03-06T06:40:10.626Z,956.25
2019-03-06T06:41:10.622Z,956.20
2019-03-06T06:42:10.616Z,956.17
2019-03-06T06:43:10.613Z,956.12
2019-03-06T06:44:10.602Z,956.07
2019-03-06T06:45:10.596Z,956.03
2019-03-06T06:46:10.601Z,956.05
2019-03-06T06:47:10.591Z,956.08
2019-03-06T06:48:10.579Z,956.10
2019-03-06T06:49:10.572Z,956.07
2019-03-06T06:50:10.564Z,956.00
2019-03-06T06:51:10.563Z,955.96
2019-03-06T06:52:10.551Z,955.96
2019-03-06T06:53:10.551Z,955.95
2019-03-06T06:54:10.537Z,955.95
2019-03-06T06:55:10.535Z,955.96
2019-03-06T06:56:10.524Z,955.93
2019-03-06T06:57:10.517Z,955.95
2019-03-06T06:58:10.511Z,955.89
2019-03-06T06:59:10.508Z,955.93
2019-03-06T07:00:10.502Z,955.88
2019-03-06T07:01:10.495Z,955.83
2019-03-06T07:02:10.488Z,955.84
2019-03-06T07:03:10.482Z,955.76
2019-03-06T07:04:10.477Z,955.71
2019-03-06T07:05:10.469Z,955.73
2019-03-06T07:06:10.467Z,955.75
2019-03-06T07:07:10.459Z,955.73
2019-03-06T07:08:10.453Z,955.72
2019-03-06T07:09:10.448Z,955.71
2019-03-06T07:10:10.439Z,955.67
2019-03-06T07:11:10.444Z,955.65
2019-03-06T07:12:10.435Z,955.65
2019-03-06T07:13:10.421Z,955.62
2019-03-06T07:14:10.413Z,955.62
2019-03-06T07:15:10.410Z,955.53
2019-03-06T07:16:10.405Z,955.50
2019-03-06T07:17:10.399Z,955.50
2019-03-06T07:18:10.396Z,955.51
2019-03-06T07:19:10.387Z,955.49
2019-03-06T07:20:10.381Z,955.46
2019-03-06T07:21:10.375Z,955.48
2019-03-06T07:22:10.394Z,955.50
2019-03-06T07:23:10.367Z,955.47
2019-03-06T07:24:10.359Z,955.44
2019-03-06T07:25:10.352Z,955.53
2019-03-06T07:26:10.347Z,955.50
2019-03-06T07:27:10.354Z,955.47
2019-03-06T07:28:10.334Z,955.47
2019-03-06T07:29:10.330Z,955.47
2019-03-06T07:30:10.330Z,955.52
2019-03-06T07:31:10.322Z,955.50
2019-03-06T07:32:10.314Z,955.51
2019-03-06T07:33:10.307Z,955.50
2019-03-06T07:34:10.303Z,955.47
2019-03-06T07:35:10.298Z,955.47
2019-03-06T07:36:10.293Z,955.46
2019-03-06T07:37:10.285Z,955.48
2019-03-06T07:38:10.281Z,955.32
2019-03-06T07:39:10.278Z,955.38
2019-03-06T07:40:10.274Z,955.35
2019-03-06T07:41:10.273Z,955.35
2019-03-06T07:42:10.262Z,955.30
2019-03-06T07:43:10.257Z,955.33
2019-03-06T07:44:10.253Z,955.35
2019-03-06T07:45:10.249Z,955.29
2019-03-06T07:46:10.239Z,955.26
2019-03-06T07:47:10.236Z,955.25
2019-03-06T07:48:10.230Z,955.23
2019-03-06T07:49:10.224Z,955.22
2019-03-06T07:50:10.218Z,955.27
2019-03-06T07:51:10.216Z,955.37
2019-03-06T07:52:10.209Z,955.23
2019-03-06T07:53:10.205Z,955.26
2019-03-06T07:54:10.199Z,955.37
2019-03-06T07:55:10.194Z,955.32
2019-03-06T07:56:10.191Z,955.29
2019-03-06T07:57:10.184Z,955.43
2019-03-06T07:58:10.176Z,955.34
2019-03-06T07:59:10.173Z,955.32
2019-03-06T08:00:10.171Z,955.28
2019-03-06T08:01:16.832Z,955.29
2019-03-06T08:02:10.156Z,955.30
2019-03-06T08:03:10.157Z,955.26
2019-03-06T08:04:10.163Z,955.29
2019-03-06T08:05:10.142Z,955.20
2019-03-06T08:06:10.138Z,955.26
2019-03-06T08:07:10.130Z,955.25
2019-03-06T08:08:10.125Z,955.28
2019-03-06T08:09:10.117Z,955.38
2019-03-06T08:10:10.113Z,955.32
2019-03-06T08:11:10.108Z,955.23
2019-03-06T08:12:10.127Z,955.23
2019-03-06T08:13:10.107Z,955.44
2019-03-06T08:14:10.088Z,955.32
2019-03-06T08:15:10.091Z,955.31
2019-03-06T08:16:10.083Z,955.31
2019-03-06T08:17:10.082Z,955.29
2019-03-06T08:18:10.072Z,955.17
2019-03-06T08:19:10.069Z,955.40
2019-03-06T08:20:10.080Z,955.57
2019-03-06T08:21:10.058Z,955.42
2019-03-06T08:22:10.053Z,955.59
2019-03-06T08:23:10.049Z,955.35
2019-03-06T08:24:10.044Z,955.31
2019-03-06T08:25:10.041Z,955.33
2019-03-06T08:26:10.035Z,955.27
2019-03-06T08:27:10.032Z,955.23
2019-03-06T08:28:10.033Z,955.29
2019-03-06T08:29:10.021Z,955.23
2019-03-06T08:30:10.015Z,955.25
2019-03-06T08:31:10.013Z,955.39
2019-03-06T08:32:10.004Z,955.43
2019-03-06T08:33:17.941Z,955.49
2019-03-06T08:34:10.003Z,955.69
2019-03-06T08:35:09.993Z,956.37
2019-03-06T08:36:09.992Z,956.10
2019-03-06T08:37:09.981Z,956.06
2019-03-06T08:38:09.979Z,956.00
2019-03-06T08:39:10.932Z,956.46
2019-03-06T08:40:09.974Z,956.03
2019-03-06T08:41:09.972Z,956.21
2019-03-06T08:42:10.009Z,956.20
2019-03-06T08:43:09.965Z,956.14
2019-03-06T08:44:09.963Z,956.16
2019-03-06T08:45:09.964Z,956.22
2019-03-06T08:46:10.003Z,956.22
2019-03-06T08:47:10.938Z,956.22
2019-03-06T08:48:09.957Z,956.40
2019-03-06T08:49:09.954Z,956.68
2019-03-06T08:50:09.956Z,956.60
2019-03-06T08:51:09.981Z,956.50
2019-03-06T08:52:09.952Z,956.73
2019-03-06T08:53:09.975Z,956.79
2019-03-06T08:54:09.961Z,956.86
2019-03-06T08:55:11.073Z,956.54
2019-03-06T08:56:09.992Z,956.73
2019-03-06T08:57:09.958Z,956.55
2019-03-06T08:58:09.955Z,956.46
2019-03-06T08:59:11.493Z,957.00
2019-03-06T09:00:09.974Z,957.14
2019-03-06T09:01:09.959Z,957.15
2019-03-06T09:02:15.606Z,956.88
2019-03-06T09:03:09.964Z,956.56
2019-03-06T09:04:09.970Z,957.01
2019-03-06T09:05:09.966Z,956.91
2019-03-06T09:06:09.972Z,956.89
2019-03-06T09:07:09.983Z,956.89
2019-03-06T09:08:09.975Z,956.81
2019-03-06T09:09:09.983Z,956.88
2019-03-06T09:10:09.977Z,956.74
2019-03-06T09:11:09.994Z,956.59
2019-03-06T09:12:09.988Z,956.62
2019-03-06T09:13:09.993Z,956.74
2019-03-06T09:14:09.997Z,956.40
2019-03-06T09:15:09.996Z,956.85
2019-03-06T09:16:10.006Z,955.86
2019-03-06T09:17:10.002Z,956.92
2019-03-06T09:18:10.025Z,956.81
2019-03-06T09:19:10.015Z,956.80
2019-03-06T09:20:10.022Z,956.73
2019-03-06T09:21:10.027Z,956.68
2019-03-06T09:22:10.023Z,955.81
2019-03-06T09:23:10.024Z,956.58
2019-03-06T09:24:10.053Z,956.57
2019-03-06T09:25:10.036Z,955.77
2019-03-06T09:26:10.035Z,955.89
2019-03-06T09:27:10.036Z,956.52
2019-03-06T09:28:10.081Z,956.05
2019-03-06T09:29:10.044Z,955.75
2019-03-06T09:30:15.986Z,955.64
2019-03-06T09:31:10.052Z,955.59
2019-03-06T09:32:10.048Z,955.44
2019-03-06T09:34:10.054Z,955.45
2019-03-06T09:35:10.056Z,955.48
2019-03-06T09:36:10.084Z,955.47
2019-03-06T09:37:10.087Z,955.50
2019-03-06T09:38:11.294Z,955.51
2019-03-06T09:39:10.069Z,955.52
2019-03-06T09:40:31.062Z,955.50
2019-03-06T09:41:10.058Z,955.47
2019-03-06T09:42:10.053Z,955.43
2019-03-06T09:43:10.051Z,955.48
2019-03-06T09:44:10.044Z,955.42
2019-03-06T09:45:10.043Z,955.37
2019-03-06T09:46:31.052Z,955.51
2019-03-06T09:47:10.107Z,955.45
2019-03-06T09:48:10.052Z,955.36
2019-03-06T09:49:11.733Z,955.37
2019-03-06T09:50:11.031Z,955.46
2019-03-06T09:51:10.031Z,955.40
2019-03-06T09:52:31.039Z,955.38
2019-03-06T09:53:10.026Z,955.34
2019-03-06T09:54:10.039Z,955.30
2019-03-06T09:55:10.026Z,955.34
2019-03-06T09:56:10.016Z,955.36
2019-03-06T09:57:10.016Z,955.33
2019-03-06T09:58:31.018Z,955.41
2019-03-06T09:59:10.007Z,955.35
2019-03-06T10:00:10.003Z,955.33
2019-03-06T10:01:09.996Z,955.40
2019-03-06T10:02:09.997Z,955.39
2019-03-06T10:03:09.990Z,955.34
2019-03-06T10:04:31.002Z,955.28
2019-03-06T10:05:09.985Z,955.29
2019-03-06T10:06:10.984Z,955.30
2019-03-06T10:07:09.992Z,955.21
2019-03-06T10:08:09.987Z,955.24
2019-03-06T10:09:09.977Z,955.23
2019-03-06T10:10:30.976Z,955.18
2019-03-06T10:11:09.965Z,955.21
2019-03-06T10:12:09.961Z,955.20
2019-03-06T10:13:09.958Z,955.18
2019-03-06T10:14:09.959Z,955.10
2019-03-06T10:15:09.964Z,955.14
2019-03-06T10:16:30.956Z,955.04
2019-03-06T10:17:09.943Z,955.09
2019-03-06T10:18:09.938Z,955.06
2019-03-06T10:19:10.524Z,955.12
2019-03-06T10:20:09.931Z,955.08
2019-03-06T10:21:09.927Z,955.04
2019-03-06T10:22:30.934Z,955.04
2019-03-06T10:23:09.923Z,955.27
2019-03-06T10:24:09.918Z,954.99
2019-03-06T10:25:09.915Z,955.04
2019-03-06T10:26:09.912Z,954.99
2019-03-06T10:27:09.910Z,954.91
2019-03-06T10:28:30.937Z,954.95
2019-03-06T10:29:09.913Z,954.92
2019-03-06T10:30:09.897Z,954.89
2019-03-06T10:31:09.896Z,954.81
2019-03-06T10:32:09.922Z,954.78
2019-03-06T10:33:09.886Z,954.81
2019-03-06T10:34:30.894Z,954.86
2019-03-06T10:35:10.479Z,954.81
2019-03-06T10:36:09.888Z,954.74
2019-03-06T10:37:09.883Z,954.64
2019-03-06T10:38:16.485Z,954.57
2019-03-06T10:39:09.862Z,954.60
2019-03-06T10:40:30.868Z,954.61
2019-03-06T10:41:09.861Z,954.48
2019-03-06T10:42:09.857Z,954.48
2019-03-06T10:43:09.857Z,954.44
2019-03-06T10:44:09.851Z,954.46
2019-03-06T10:45:09.841Z,954.47
2019-03-06T10:46:30.845Z,954.37
2019-03-06T10:47:09.833Z,954.36
2019-03-06T10:48:09.829Z,954.42
2019-03-06T10:49:09.825Z,954.34
2019-03-06T10:50:09.836Z,954.40
2019-03-06T10:51:09.824Z,954.28
2019-03-06T10:52:30.830Z,954.19
2019-03-06T10:53:09.816Z,954.16
2019-03-06T10:54:09.809Z,954.22
2019-03-06T10:55:09.809Z,954.09
2019-03-06T10:56:09.830Z,954.13
2019-03-06T10:57:11.785Z,954.12
2019-03-06T10:58:30.809Z,954.06
2019-03-06T10:59:09.796Z,954.09
2019-03-06T11:00:09.789Z,954.00
2019-03-06T11:01:09.784Z,954.08
2019-03-06T11:02:09.803Z,954.00
2019-03-06T11:03:09.775Z,953.95
2019-03-06T11:04:30.778Z,953.95
2019-03-06T11:05:09.799Z,953.99
2019-03-06T11:06:09.762Z,953.94
2019-03-06T11:07:09.759Z,953.92
2019-03-06T11:08:09.753Z,953.94
2019-03-06T11:09:09.773Z,953.92
2019-03-06T11:10:30.757Z,953.95
2019-03-06T11:11:09.750Z,953.94
2019-03-06T11:12:09.746Z,953.91
2019-03-06T11:13:09.734Z,953.88
2019-03-06T11:14:09.742Z,953.87
2019-03-06T11:15:09.726Z,953.83
2019-03-06T11:16:30.731Z,953.78
2019-03-06T11:17:09.723Z,953.70
2019-03-06T11:18:09.720Z,953.78
2019-03-06T11:19:09.715Z,953.69
2019-03-06T11:20:09.712Z,953.69
2019-03-06T11:21:09.711Z,953.79
2019-03-06T11:22:30.710Z,953.78
2019-03-06T11:23:09.701Z,953.74
2019-03-06T11:24:09.694Z,953.73
2019-03-06T11:25:09.721Z,953.74
2019-03-06T11:26:09.693Z,953.68
2019-03-06T11:27:09.685Z,953.66
2019-03-06T11:28:30.688Z,953.62
2019-03-06T11:29:09.684Z,953.65
2019-03-06T11:30:09.675Z,953.66
2019-03-06T11:31:09.666Z,953.53
2019-03-06T11:32:09.663Z,953.52
2019-03-06T11:33:09.688Z,953.52
2019-03-06T11:34:30.658Z,953.53
2019-03-06T11:35:09.653Z,953.50
2019-03-06T11:36:09.649Z,953.56
2019-03-06T11:37:09.645Z,953.48
2019-03-06T11:38:09.637Z,953.48
2019-03-06T11:39:09.637Z,953.42
2019-03-06T11:40:30.737Z,953.41
2019-03-06T11:41:09.625Z,953.35
2019-03-06T11:42:09.626Z,953.33
2019-03-06T11:43:09.618Z,953.24
2019-03-06T11:44:09.616Z,953.29
2019-03-06T11:45:09.615Z,953.28
2019-03-06T11:46:30.616Z,953.24
2019-03-06T11:47:09.635Z,953.26
2019-03-06T11:48:09.599Z,953.23
2019-03-06T11:49:09.598Z,953.16
2019-03-06T11:50:09.597Z,953.23
2019-03-06T11:51:09.594Z,953.30
2019-03-06T11:52:34.771Z,953.25
2019-03-06T11:53:09.586Z,953.24
2019-03-06T11:54:09.605Z,953.21
2019-03-06T11:55:09.720Z,953.22
2019-03-06T11:56:09.587Z,953.10
2019-03-06T11:57:09.569Z,953.10
2019-03-06T11:58:30.584Z,953.12
2019-03-06T11:59:09.580Z,953.05
2019-03-06T12:00:09.560Z,953.03
2019-03-06T12:01:09.552Z,953.08
2019-03-06T12:02:09.552Z,952.99
2019-03-06T12:03:09.545Z,953.04
2019-03-06T12:04:30.617Z,953.07
2019-03-06T12:05:09.548Z,953.01
2019-03-06T12:06:09.544Z,953.07
2019-03-06T12:07:09.534Z,953.05
2019-03-06T12:08:09.533Z,952.96
2019-03-06T12:09:09.527Z,952.97
2019-03-06T12:10:31.418Z,952.93
2019-03-06T12:11:09.520Z,952.92
2019-03-06T12:12:09.519Z,952.92
2019-03-06T12:13:09.514Z,952.86
2019-03-06T12:14:09.515Z,952.89
2019-03-06T12:15:09.509Z,952.83
2019-03-06T12:16:30.533Z,952.80
2019-03-06T12:17:09.500Z,952.81
2019-03-06T12:18:09.571Z,952.76
2019-03-06T12:19:09.504Z,952.73
2019-03-06T12:20:10.146Z,952.69
2019-03-06T12:21:09.484Z,952.71
2019-03-06T12:22:30.486Z,952.63
2019-03-06T12:23:09.511Z,952.63
2019-03-06T12:24:09.505Z,952.67
2019-03-06T12:25:09.476Z,952.64
2019-03-06T12:26:09.470Z,952.52
2019-03-06T12:27:09.473Z,952.49
2019-03-06T12:28:30.468Z,952.44
2019-03-06T12:29:09.462Z,952.41